Sardinia Regina — IBMS — position and weather

sailwx.info

Track history (hours):
 
Tides and Currents Weather Stations Pressure Air Temp Water Temp Dewpoint Dewpoint Depression Visibility Wind Speed Wind Dir Waves Ship Positions

Sardinia Regina

Last reported at 2017-Jul-27 02:30 UTC. Time now 2017-Jul-27 02:43 UTC.
Position N 43°59' E 008°40'.

Length 146 m; draft 5 m.

Type: Passenger vessel. MMSI: 247079000.

Date/timePositionNaut miles runAvg speedWind from/ knotsBaromVisibWave heightAir tempDewpointWater temp
2017-Jul-27 02:30N 43°59' E 008°40'5 9.8
2017-Jul-27 02:00N 43°55' E 008°43'5 9.8
2017-Jul-27 01:30N 43°50' E 008°46'5 9.8
2017-Jul-27 01:00N 43°46' E 008°49'510.1
2017-Jul-27 00:30N 43°42' E 008°53'510.1
2017-Jul-27 00:01N 43°38' E 008°58'510.7
2017-Jul-26 23:31N 43°34' E 009°02'612.4
2017-Jul-26 23:00N 43°29' E 009°07'612.2
2017-Jul-26 22:30N 43°24' E 009°12'612.2
2017-Jul-26 22:01N 43°19' E 009°17'712.0
2017-Jul-26 21:26N 43°13' E 009°22'511.8
2017-Jul-26 21:00N 43°09' E 009°26'611.9
2017-Jul-26 20:30N 43°04' E 009°30'713.1
2017-Jul-26 20:00N 42°58' E 009°33'713.4
2017-Jul-26 19:30N 42°51' E 009°35'1111.8
2017-Jul-26 18:36N 42°42' E 009°27'18 6.4
2017-Jul-26 15:44N 42°53' E 009°47'417.6
2017-Jul-26 15:30N 42°56' E 009°52'816.9
2017-Jul-26 15:00N 43°02' E 009°59'1817.6
2017-Jul-26 14:00N 43°19' E 010°06'917.1
2017-Jul-26 13:30N 43°27' E 010°10'714.3
2017-Jul-26 13:00N 43°32' E 010°16'2 2.8
2017-Jul-26 12:25N 43°33' E 010°18'0 0.0
2017-Jul-26 11:58N 43°33' E 010°18'0 0.4
2017-Jul-26 11:30N 43°33' E 010°18'3 6.2
2017-Jul-26 11:00N 43°31' E 010°15'816.5
2017-Jul-26 10:30N 43°23' E 010°11'916.6
2017-Jul-26 09:59N 43°15' E 010°06'34 4.6
2017-Jul-26 02:27N 43°16' E 009°19'816.8
2017-Jul-26 02:00N 43°22' E 009°14'817.1
2017-Jul-26 01:30N 43°30' E 009°09'817.0
2017-Jul-26 01:00N 43°37' E 009°02'816.8
2017-Jul-26 00:30N 43°44' E 008°56'816.8
2017-Jul-26 00:00N 43°51' E 008°50'816.8
2017-Jul-25 23:30N 43°58' E 008°44'917.0
2017-Jul-25 23:00N 44°06' E 008°38'917.2
2017-Jul-25 22:29N 44°13' E 008°31'4 8.1
2017-Jul-25 21:58N 44°16' E 008°27'0 0.0
2017-Jul-25 21:30N 44°16' E 008°27'0 0.0
2017-Jul-25 21:00N 44°16' E 008°27'0 0.0
2017-Jul-25 20:29N 44°16' E 008°27'0 0.0
2017-Jul-25 20:00N 44°16' E 008°27'3 5.3
2017-Jul-25 19:30N 44°16' E 008°31'816.9
2017-Jul-25 19:00N 44°08' E 008°37'916.9
2017-Jul-25 18:30N 44°01' E 008°42'816.8
2017-Jul-25 18:00N 43°53' E 008°47'917.1
2017-Jul-25 17:30N 43°46' E 008°53'917.3
2017-Jul-25 17:00N 43°39' E 008°60'817.0
2017-Jul-25 16:30N 43°32' E 009°06'816.9
2017-Jul-25 16:00N 43°25' E 009°13'816.7
2017-Jul-25 15:30N 43°18' E 009°20'816.4
2017-Jul-25 15:00N 43°11' E 009°26'1716.5
2017-Jul-25 14:00N 42°56' E 009°33'8 1.3
2017-Jul-25 07:36N 43°03' E 009°29'318.4
2017-Jul-25 07:27N 43°04' E 009°25'1515.7
2017-Jul-25 06:30N 43°18' E 009°25'816.4
2017-Jul-25 06:00N 43°27' E 009°26'816.2
2017-Jul-25 05:30N 43°35' E 009°28'816.2
2017-Jul-25 05:00N 43°43' E 009°30'816.2
2017-Jul-25 04:30N 43°51' E 009°31'816.5
2017-Jul-25 04:01N 43°59' E 009°30'816.5
2017-Jul-25 03:31N 44°04' E 009°21'917.0
2017-Jul-25 03:00N 44°07' E 009°10'917.1
2017-Jul-25 02:30N 44°09' E 008°59'917.2
2017-Jul-25 02:00N 44°12' E 008°47'917.2
2017-Jul-25 01:30N 44°15' E 008°36'612.8
2017-Jul-25 01:00N 44°16' E 008°27'0 0.0
2017-Jul-25 00:29N 44°16' E 008°27'0 0.0
2017-Jul-24 23:59N 44°16' E 008°27'0 0.0
2017-Jul-24 23:29N 44°16' E 008°27'0 0.2
2017-Jul-24 23:00N 44°16' E 008°27'510.5
2017-Jul-24 22:31N 44°12' E 008°32'816.3
2017-Jul-24 22:00N 44°05' E 008°26'816.2
2017-Jul-24 21:30N 43°58' E 008°21'1015.7
2017-Jul-24 20:52N 43°49' E 008°14'615.6
2017-Jul-24 20:29N 43°44' E 008°11'715.5
2017-Jul-24 20:01N 43°36' E 008°11'816.6
2017-Jul-24 19:30N 43°30' E 008°18'816.3
2017-Jul-24 19:00N 43°25' E 008°27'815.2
2017-Jul-24 18:30N 43°21' E 008°36'714.6
2017-Jul-24 18:00N 43°19' E 008°45'714.3
2017-Jul-24 17:31N 43°17' E 008°55'714.0
2017-Jul-24 17:00N 43°14' E 009°04'713.5
2017-Jul-24 16:30N 43°12' E 009°13'713.7
2017-Jul-24 16:00N 43°09' E 009°21'4 0.3
2017-Jul-24 03:11N 43°12' E 009°24'517.6
2017-Jul-24 02:54N 43°17' E 009°20'1117.2
2017-Jul-24 02:15N 43°26' E 009°12'517.0
2017-Jul-24 01:55N 43°31' E 009°08'716.6
2017-Jul-24 01:30N 43°37' E 009°03'816.6
2017-Jul-24 01:00N 43°43' E 008°57'816.7
2017-Jul-24 00:30N 43°51' E 008°50'917.0
2017-Jul-24 00:00N 43°58' E 008°44'816.9
2017-Jul-23 23:30N 44°05' E 008°38'917.1
2017-Jul-23 23:00N 44°12' E 008°32'5 9.5
2017-Jul-23 22:29N 44°16' E 008°27'0 0.0
2017-Jul-23 21:56N 44°16' E 008°27'0 0.0
2017-Jul-23 21:29N 44°16' E 008°27'0 0.0
2017-Jul-23 20:59N 44°16' E 008°27'0 0.0
2017-Jul-23 20:30N 44°16' E 008°27'510.6
2017-Jul-23 20:01N 44°13' E 008°33'917.6
2017-Jul-23 19:30N 44°06' E 008°40'917.9
2017-Jul-23 19:01N 43°58' E 008°46'917.8
2017-Jul-23 18:31N 43°50' E 008°52'917.8
2017-Jul-23 18:01N 43°43' E 008°58'917.7
2017-Jul-23 17:30N 43°35' E 009°05'917.6
2017-Jul-23 17:01N 43°27' E 009°11'917.4
2017-Jul-23 16:30N 43°20' E 009°17'1017.2
2017-Jul-23 15:56N 43°11' E 009°24'5 0.4
2017-Jul-23 02:53N 43°06' E 009°26'815.1
2017-Jul-23 02:19N 43°11' E 009°17'1414.2
2017-Jul-23 01:20N 43°24' E 009°10'514.7
2017-Jul-23 01:00N 43°29' E 009°08'714.7
2017-Jul-23 00:30N 43°35' E 009°03'714.4
2017-Jul-23 00:00N 43°41' E 008°58'714.4
2017-Jul-22 23:30N 43°48' E 008°53'714.5
2017-Jul-22 23:00N 43°54' E 008°48'814.9
2017-Jul-22 22:29N 44°00' E 008°42'715.2
2017-Jul-22 22:00N 44°07' E 008°36'815.2
2017-Jul-22 21:30N 44°13' E 008°31'4 8.1
2017-Jul-22 21:00N 44°16' E 008°27'0 0.0
2017-Jul-22 20:30N 44°16' E 008°27'0 0.0
2017-Jul-22 20:00N 44°16' E 008°27'0 0.9
2017-Jul-22 19:30N 44°16' E 008°27'714.1
2017-Jul-22 19:00N 44°12' E 008°35'917.6
2017-Jul-22 18:30N 44°04' E 008°41'917.5
2017-Jul-22 18:00N 43°57' E 008°47'917.7
2017-Jul-22 17:30N 43°49' E 008°53'917.8
2017-Jul-22 17:00N 43°41' E 008°60'918.1
2017-Jul-22 16:30N 43°34' E 009°06'918.1
2017-Jul-22 16:00N 43°26' E 009°13'917.7
2017-Jul-22 15:30N 43°19' E 009°19'917.0
2017-Jul-22 15:00N 43°11' E 009°25'1817.4
2017-Jul-22 14:00N 42°55' E 009°34'17 4.4
2017-Jul-22 10:04N 43°10' E 009°24'718.1
2017-Jul-22 09:41N 43°16' E 009°19'317.7
2017-Jul-22 09:30N 43°19' E 009°17'917.7
2017-Jul-22 09:00N 43°26' E 009°10'917.5
2017-Jul-22 08:30N 43°33' E 009°04'917.2
2017-Jul-22 08:00N 43°41' E 008°57'917.2
2017-Jul-22 07:30N 43°48' E 008°51'917.4
2017-Jul-22 07:00N 43°56' E 008°45'917.7
2017-Jul-22 06:30N 44°03' E 008°39'917.7
2017-Jul-22 06:00N 44°11' E 008°33'713.2
2017-Jul-22 05:31N 44°16' E 008°27'0 0.3
2017-Jul-22 05:00N 44°16' E 008°27'0 0.0
2017-Jul-22 04:30N 44°16' E 008°27'0 0.0
2017-Jul-22 04:00N 44°16' E 008°27'2 3.9
2017-Jul-22 03:30N 44°16' E 008°30'612.2
2017-Jul-22 03:00N 44°12' E 008°35'612.7
2017-Jul-22 02:30N 44°06' E 008°38'612.7
2017-Jul-22 02:00N 43°60' E 008°42'612.6
2017-Jul-22 01:30N 43°56' E 008°48'612.9
2017-Jul-22 01:00N 43°52' E 008°56'612.7
2017-Jul-22 00:30N 43°47' E 009°01'713.1
2017-Jul-22 00:01N 43°41' E 009°04'713.1
2017-Jul-21 23:30N 43°35' E 009°07'713.1
2017-Jul-21 23:00N 43°29' E 009°11'713.0
2017-Jul-21 22:30N 43°23' E 009°15'712.9
2017-Jul-21 22:00N 43°17' E 009°19'31 4.8
2017-Jul-21 15:30N 42°53' E 009°47'817.2
2017-Jul-21 15:00N 42°59' E 009°56'917.1
2017-Jul-21 14:30N 43°07' E 009°60'917.2
2017-Jul-21 14:00N 43°15' E 010°04'917.2
2017-Jul-21 13:30N 43°23' E 010°08'816.8
2017-Jul-21 13:00N 43°31' E 010°12'5 9.1
2017-Jul-21 12:31N 43°33' E 010°18'0 0.7
2017-Jul-21 12:00N 43°33' E 010°18'0 0.0
2017-Jul-21 11:31N 43°33' E 010°18'0 0.0
2017-Jul-21 11:00N 43°33' E 010°18'0 0.0
2017-Jul-21 10:30N 43°33' E 010°18'4 8.8
2017-Jul-21 10:00N 43°30' E 010°14'917.8
2017-Jul-21 09:30N 43°21' E 010°10'917.5
2017-Jul-21 09:00N 43°13' E 010°06'2216.6
2017-Jul-21 07:42N 42°55' E 009°50'26 4.7
2017-Jul-21 02:08N 43°11' E 009°22'415.4
2017-Jul-21 01:51N 43°14' E 009°19'615.4
2017-Jul-21 01:29N 43°19' E 009°15'715.4
2017-Jul-21 01:00N 43°25' E 009°10'715.1
2017-Jul-21 00:30N 43°32' E 009°05'814.9
2017-Jul-21 00:00N 43°39' E 009°00'714.9
2017-Jul-20 23:30N 43°45' E 008°55'714.9
2017-Jul-20 23:00N 43°51' E 008°49'916.9
2017-Jul-20 22:30N 43°59' E 008°43'817.3
2017-Jul-20 22:00N 44°06' E 008°37'917.3
2017-Jul-20 21:30N 44°14' E 008°31'4 5.9
2017-Jul-20 20:52N 44°16' E 008°27'0 0.0
2017-Jul-20 20:28N 44°16' E 008°27'0 0.0
2017-Jul-20 19:58N 44°16' E 008°27'0 0.3
2017-Jul-20 19:30N 44°16' E 008°27'713.7
2017-Jul-20 19:00N 44°12' E 008°35'917.9
2017-Jul-20 18:30N 44°04' E 008°41'917.9
2017-Jul-20 18:01N 43°57' E 008°48'917.8
2017-Jul-20 17:31N 43°49' E 008°54'918.2
2017-Jul-20 17:00N 43°41' E 009°00'918.2
2017-Jul-20 16:31N 43°33' E 009°07'918.2
2017-Jul-20 16:01N 43°25' E 009°13'918.0
2017-Jul-20 15:31N 43°18' E 009°19'918.2
2017-Jul-20 15:00N 43°10' E 009°26'1818.4
2017-Jul-20 14:01N 42°52' E 009°35'12 6.5
2017-Jul-20 12:10N 42°42' E 009°27'1 5.9
2017-Jul-20 12:00N 42°41' E 009°29'816.4
2017-Jul-20 11:30N 42°36' E 009°37'917.7
2017-Jul-20 11:00N 42°27' E 009°40'918.3
2017-Jul-20 10:30N 42°18' E 009°40'917.9
2017-Jul-20 10:00N 42°09' E 009°41'5317.8
2017-Jul-20 07:01N 41°16' E 009°42'117.8
2017-Jul-20 06:57N 41°15' E 009°42'817.9
2017-Jul-20 06:30N 41°07' E 009°43'917.5
2017-Jul-20 06:00N 40°58' E 009°40'3 3.1
2017-Jul-20 05:07N 40°60' E 009°37'0 0.1
2017-Jul-20 04:55N 40°60' E 009°37'3 6.5
2017-Jul-20 04:30N 40°59' E 009°41'8417.6
2017-Jul-19 23:44N 42°23' E 009°52'417.9
2017-Jul-19 23:30N 42°27' E 009°53'1317.6
2017-Jul-19 22:46N 42°40' E 009°57'517.6
2017-Jul-19 22:30N 42°44' E 009°58'917.4
2017-Jul-19 22:00N 42°53' E 010°00'917.3
2017-Jul-19 21:30N 43°01' E 010°04'917.5
2017-Jul-19 21:00N 43°09' E 010°07'917.8
2017-Jul-19 20:30N 43°18' E 010°10'917.6
2017-Jul-19 20:00N 43°27' E 010°12'713.4
2017-Jul-19 19:30N 43°32' E 010°17'1 2.3
2017-Jul-19 18:59N 43°33' E 010°18'0 0.0
2017-Jul-19 18:29N 43°33' E 010°18'0 0.0
2017-Jul-19 17:56N 43°33' E 010°18'0 0.0
2017-Jul-19 17:29N 43°33' E 010°18'2 4.2
2017-Jul-19 17:00N 43°32' E 010°16'815.9
2017-Jul-19 16:30N 43°25' E 010°11'917.9
2017-Jul-19 16:00N 43°16' E 010°06'917.7
2017-Jul-19 15:31N 43°08' E 010°02'917.7
2017-Jul-19 15:01N 42°60' E 009°58'1017.2
2017-Jul-19 14:26N 42°53' E 009°48'817.8
2017-Jul-19 13:57N 42°48' E 009°39'818.1
2017-Jul-19 13:30N 42°43' E 009°30'2 0.6
2017-Jul-19 10:19N 42°42' E 009°28'515.6
2017-Jul-19 10:00N 42°45' E 009°33'917.6
2017-Jul-19 09:30N 42°50' E 009°42'917.8
2017-Jul-19 09:01N 42°56' E 009°52'816.8
2017-Jul-19 08:30N 43°03' E 009°58'917.5
2017-Jul-19 08:00N 43°11' E 010°01'917.8
2017-Jul-19 07:30N 43°19' E 010°06'917.5
2017-Jul-19 07:00N 43°27' E 010°11'713.3
2017-Jul-19 06:31N 43°32' E 010°17'1 2.0
2017-Jul-19 05:57N 43°33' E 010°18'0 0.0
2017-Jul-19 05:30N 43°33' E 010°18'0 0.0
2017-Jul-19 05:00N 43°33' E 010°18'0 0.0
2017-Jul-19 04:30N 43°33' E 010°18'2 4.2
2017-Jul-19 04:01N 43°32' E 010°16'715.0
2017-Jul-19 03:31N 43°25' E 010°12'917.7
2017-Jul-19 03:00N 43°16' E 010°10'917.6
2017-Jul-19 02:30N 43°07' E 010°07'917.6
2017-Jul-19 01:58N 42°58' E 010°04'817.7
2017-Jul-19 01:30N 42°50' E 010°02'917.6
2017-Jul-19 00:59N 42°41' E 009°59'2417.5
2017-Jul-18 23:38N 42°18' E 009°55'217.4
2017-Jul-18 23:30N 42°15' E 009°55'5517.4
2017-Jul-18 20:20N 41°21' E 009°45'617.9
2017-Jul-18 20:00N 41°15' E 009°44'1318.1
2017-Jul-18 19:17N 41°02' E 009°42'4 1.4
2017-Jul-18 16:30N 40°59' E 009°40'11517.7
2017-Jul-18 10:01N 42°52' E 010°01'217.7
2017-Jul-18 09:55N 42°54' E 010°01'817.8
2017-Jul-18 09:29N 43°02' E 010°03'918.0
2017-Jul-18 09:00N 43°10' E 010°06'918.2
2017-Jul-18 08:30N 43°19' E 010°09'1018.0
2017-Jul-18 07:56N 43°29' E 010°12'512.2
2017-Jul-18 07:31N 43°32' E 010°17'1 1.4
2017-Jul-18 06:58N 43°33' E 010°18'0 0.0
2017-Jul-18 06:22N 43°33' E 010°18'0 0.0
2017-Jul-18 06:01N 43°33' E 010°18'0 0.0
2017-Jul-18 05:31N 43°33' E 010°18'0 0.1
2017-Jul-18 05:00N 43°33' E 010°18'4 8.9
2017-Jul-18 04:30N 43°30' E 010°14'917.6
2017-Jul-18 04:00N 43°21' E 010°11'917.7
2017-Jul-18 03:30N 43°13' E 010°08'917.6
2017-Jul-18 03:00N 43°04' E 010°05'917.3
2017-Jul-18 02:30N 42°56' E 010°02'917.2
2017-Jul-18 02:00N 42°47' E 009°60'817.1
2017-Jul-18 01:30N 42°39' E 009°58'917.2
2017-Jul-18 01:00N 42°30' E 009°57'917.4
2017-Jul-18 00:28N 42°21' E 009°56'5917.3
2017-Jul-17 21:04N 41°22' E 009°46'317.3
2017-Jul-17 20:54N 41°20' E 009°46'104 9.5
2017-Jul-17 10:00N 43°03' E 010°03'918.1
2017-Jul-17 09:30N 43°11' E 010°05'918.2
2017-Jul-17 09:00N 43°20' E 010°07'918.0
2017-Jul-17 08:31N 43°29' E 010°11'612.0
2017-Jul-17 08:00N 43°33' E 010°17'1 0.7
2017-Jul-17 07:16N 43°33' E 010°18'0 0.0
2017-Jul-17 06:58N 43°33' E 010°18'0 0.0
2017-Jul-17 06:28N 43°33' E 010°18'0 0.0
2017-Jul-17 05:52N 43°33' E 010°18'0 0.0
2017-Jul-17 05:28N 43°33' E 010°18'0 0.0
2017-Jul-17 04:58N 43°33' E 010°18'1 2.2
2017-Jul-17 04:30N 43°32' E 010°17'612.6
2017-Jul-17 04:00N 43°27' E 010°12'917.7
2017-Jul-17 03:30N 43°19' E 010°10'917.7
2017-Jul-17 03:00N 43°10' E 010°06'  
Track history (hours):
 
Tides and Currents Weather Stations Pressure Air Temp Water Temp Dewpoint Dewpoint Depression Visibility Wind Speed Wind Dir Waves Ship Positions

Sardinia Regina

Last reported at 2017-Jul-27 02:30 UTC. Time now 2017-Jul-27 02:43 UTC.
Position N 43°59' E 008°40'.

Length 146 m; draft 5 m.

Type: Passenger vessel. MMSI: 247079000.

Date/timePositionNaut miles runAvg speedWind from/ knotsBaromVisibWave heightAir tempDewpointWater temp
2017-Jul-27 02:30N 43°59' E 008°40'5 9.8
2017-Jul-27 02:00N 43°55' E 008°43'5 9.8
2017-Jul-27 01:30N 43°50' E 008°46'5 9.8
2017-Jul-27 01:00N 43°46' E 008°49'510.1
2017-Jul-27 00:30N 43°42' E 008°53'510.1
2017-Jul-27 00:01N 43°38' E 008°58'510.7
2017-Jul-26 23:31N 43°34' E 009°02'612.4
2017-Jul-26 23:00N 43°29' E 009°07'612.2
2017-Jul-26 22:30N 43°24' E 009°12'612.2
2017-Jul-26 22:01N 43°19' E 009°17'712.0
2017-Jul-26 21:26N 43°13' E 009°22'511.8
2017-Jul-26 21:00N 43°09' E 009°26'611.9
2017-Jul-26 20:30N 43°04' E 009°30'713.1
2017-Jul-26 20:00N 42°58' E 009°33'713.4
2017-Jul-26 19:30N 42°51' E 009°35'1111.8
2017-Jul-26 18:36N 42°42' E 009°27'18 6.4
2017-Jul-26 15:44N 42°53' E 009°47'417.6
2017-Jul-26 15:30N 42°56' E 009°52'816.9
2017-Jul-26 15:00N 43°02' E 009°59'1817.6
2017-Jul-26 14:00N 43°19' E 010°06'917.1
2017-Jul-26 13:30N 43°27' E 010°10'714.3
2017-Jul-26 13:00N 43°32' E 010°16'2 2.8
2017-Jul-26 12:25N 43°33' E 010°18'0 0.0
2017-Jul-26 11:58N 43°33' E 010°18'0 0.4
2017-Jul-26 11:30N 43°33' E 010°18'3 6.2
2017-Jul-26 11:00N 43°31' E 010°15'816.5
2017-Jul-26 10:30N 43°23' E 010°11'916.6
2017-Jul-26 09:59N 43°15' E 010°06'34 4.6
2017-Jul-26 02:27N 43°16' E 009°19'816.8
2017-Jul-26 02:00N 43°22' E 009°14'817.1
2017-Jul-26 01:30N 43°30' E 009°09'817.0
2017-Jul-26 01:00N 43°37' E 009°02'816.8
2017-Jul-26 00:30N 43°44' E 008°56'816.8
2017-Jul-26 00:00N 43°51' E 008°50'816.8
2017-Jul-25 23:30N 43°58' E 008°44'917.0
2017-Jul-25 23:00N 44°06' E 008°38'917.2
2017-Jul-25 22:29N 44°13' E 008°31'4 8.1
2017-Jul-25 21:58N 44°16' E 008°27'0 0.0
2017-Jul-25 21:30N 44°16' E 008°27'0 0.0
2017-Jul-25 21:00N 44°16' E 008°27'0 0.0
2017-Jul-25 20:29N 44°16' E 008°27'0 0.0
2017-Jul-25 20:00N 44°16' E 008°27'3 5.3
2017-Jul-25 19:30N 44°16' E 008°31'816.9
2017-Jul-25 19:00N 44°08' E 008°37'916.9
2017-Jul-25 18:30N 44°01' E 008°42'816.8
2017-Jul-25 18:00N 43°53' E 008°47'917.1
2017-Jul-25 17:30N 43°46' E 008°53'917.3
2017-Jul-25 17:00N 43°39' E 008°60'817.0
2017-Jul-25 16:30N 43°32' E 009°06'816.9
2017-Jul-25 16:00N 43°25' E 009°13'816.7
2017-Jul-25 15:30N 43°18' E 009°20'816.4
2017-Jul-25 15:00N 43°11' E 009°26'1716.5
2017-Jul-25 14:00N 42°56' E 009°33'8 1.3
2017-Jul-25 07:36N 43°03' E 009°29'318.4
2017-Jul-25 07:27N 43°04' E 009°25'1515.7
2017-Jul-25 06:30N 43°18' E 009°25'816.4
2017-Jul-25 06:00N 43°27' E 009°26'816.2
2017-Jul-25 05:30N 43°35' E 009°28'816.2
2017-Jul-25 05:00N 43°43' E 009°30'816.2
2017-Jul-25 04:30N 43°51' E 009°31'816.5
2017-Jul-25 04:01N 43°59' E 009°30'816.5
2017-Jul-25 03:31N 44°04' E 009°21'917.0
2017-Jul-25 03:00N 44°07' E 009°10'917.1
2017-Jul-25 02:30N 44°09' E 008°59'917.2
2017-Jul-25 02:00N 44°12' E 008°47'917.2
2017-Jul-25 01:30N 44°15' E 008°36'612.8
2017-Jul-25 01:00N 44°16' E 008°27'0 0.0
2017-Jul-25 00:29N 44°16' E 008°27'0 0.0
2017-Jul-24 23:59N 44°16' E 008°27'0 0.0
2017-Jul-24 23:29N 44°16' E 008°27'0 0.2
2017-Jul-24 23:00N 44°16' E 008°27'510.5
2017-Jul-24 22:31N 44°12' E 008°32'816.3
2017-Jul-24 22:00N 44°05' E 008°26'816.2
2017-Jul-24 21:30N 43°58' E 008°21'1015.7
2017-Jul-24 20:52N 43°49' E 008°14'615.6
2017-Jul-24 20:29N 43°44' E 008°11'715.5
2017-Jul-24 20:01N 43°36' E 008°11'816.6
2017-Jul-24 19:30N 43°30' E 008°18'816.3
2017-Jul-24 19:00N 43°25' E 008°27'815.2
2017-Jul-24 18:30N 43°21' E 008°36'714.6
2017-Jul-24 18:00N 43°19' E 008°45'714.3
2017-Jul-24 17:31N 43°17' E 008°55'714.0
2017-Jul-24 17:00N 43°14' E 009°04'713.5
2017-Jul-24 16:30N 43°12' E 009°13'713.7
2017-Jul-24 16:00N 43°09' E 009°21'4 0.3
2017-Jul-24 03:11N 43°12' E 009°24'517.6
2017-Jul-24 02:54N 43°17' E 009°20'1117.2
2017-Jul-24 02:15N 43°26' E 009°12'517.0
2017-Jul-24 01:55N 43°31' E 009°08'716.6
2017-Jul-24 01:30N 43°37' E 009°03'816.6
2017-Jul-24 01:00N 43°43' E 008°57'816.7
2017-Jul-24 00:30N 43°51' E 008°50'917.0
2017-Jul-24 00:00N 43°58' E 008°44'816.9
2017-Jul-23 23:30N 44°05' E 008°38'917.1
2017-Jul-23 23:00N 44°12' E 008°32'5 9.5
2017-Jul-23 22:29N 44°16' E 008°27'0 0.0
2017-Jul-23 21:56N 44°16' E 008°27'0 0.0
2017-Jul-23 21:29N 44°16' E 008°27'0 0.0
2017-Jul-23 20:59N 44°16' E 008°27'0 0.0
2017-Jul-23 20:30N 44°16' E 008°27'510.6
2017-Jul-23 20:01N 44°13' E 008°33'917.6
2017-Jul-23 19:30N 44°06' E 008°40'917.9
2017-Jul-23 19:01N 43°58' E 008°46'917.8
2017-Jul-23 18:31N 43°50' E 008°52'917.8
2017-Jul-23 18:01N 43°43' E 008°58'917.7
2017-Jul-23 17:30N 43°35' E 009°05'917.6
2017-Jul-23 17:01N 43°27' E 009°11'917.4
2017-Jul-23 16:30N 43°20' E 009°17'1017.2
2017-Jul-23 15:56N 43°11' E 009°24'5 0.4
2017-Jul-23 02:53N 43°06' E 009°26'815.1
2017-Jul-23 02:19N 43°11' E 009°17'1414.2
2017-Jul-23 01:20N 43°24' E 009°10'514.7
2017-Jul-23 01:00N 43°29' E 009°08'714.7
2017-Jul-23 00:30N 43°35' E 009°03'714.4
2017-Jul-23 00:00N 43°41' E 008°58'714.4
2017-Jul-22 23:30N 43°48' E 008°53'714.5
2017-Jul-22 23:00N 43°54' E 008°48'814.9
2017-Jul-22 22:29N 44°00' E 008°42'715.2
2017-Jul-22 22:00N 44°07' E 008°36'815.2
2017-Jul-22 21:30N 44°13' E 008°31'4 8.1
2017-Jul-22 21:00N 44°16' E 008°27'0 0.0
2017-Jul-22 20:30N 44°16' E 008°27'0 0.0
2017-Jul-22 20:00N 44°16' E 008°27'0 0.9
2017-Jul-22 19:30N 44°16' E 008°27'714.1
2017-Jul-22 19:00N 44°12' E 008°35'917.6
2017-Jul-22 18:30N 44°04' E 008°41'917.5
2017-Jul-22 18:00N 43°57' E 008°47'917.7
2017-Jul-22 17:30N 43°49' E 008°53'917.8
2017-Jul-22 17:00N 43°41' E 008°60'918.1
2017-Jul-22 16:30N 43°34' E 009°06'918.1
2017-Jul-22 16:00N 43°26' E 009°13'917.7
2017-Jul-22 15:30N 43°19' E 009°19'917.0
2017-Jul-22 15:00N 43°11' E 009°25'1817.4
2017-Jul-22 14:00N 42°55' E 009°34'17 4.4
2017-Jul-22 10:04N 43°10' E 009°24'718.1
2017-Jul-22 09:41N 43°16' E 009°19'317.7
2017-Jul-22 09:30N 43°19' E 009°17'917.7
2017-Jul-22 09:00N 43°26' E 009°10'917.5
2017-Jul-22 08:30N 43°33' E 009°04'917.2
2017-Jul-22 08:00N 43°41' E 008°57'917.2
2017-Jul-22 07:30N 43°48' E 008°51'917.4
2017-Jul-22 07:00N 43°56' E 008°45'917.7
2017-Jul-22 06:30N 44°03' E 008°39'917.7
2017-Jul-22 06:00N 44°11' E 008°33'713.2
2017-Jul-22 05:31N 44°16' E 008°27'0 0.3
2017-Jul-22 05:00N 44°16' E 008°27'0 0.0
2017-Jul-22 04:30N 44°16' E 008°27'0 0.0
2017-Jul-22 04:00N 44°16' E 008°27'2 3.9
2017-Jul-22 03:30N 44°16' E 008°30'612.2
2017-Jul-22 03:00N 44°12' E 008°35'612.7
2017-Jul-22 02:30N 44°06' E 008°38'612.7
2017-Jul-22 02:00N 43°60' E 008°42'612.6
2017-Jul-22 01:30N 43°56' E 008°48'612.9
2017-Jul-22 01:00N 43°52' E 008°56'612.7
2017-Jul-22 00:30N 43°47' E 009°01'713.1
2017-Jul-22 00:01N 43°41' E 009°04'713.1
2017-Jul-21 23:30N 43°35' E 009°07'713.1
2017-Jul-21 23:00N 43°29' E 009°11'713.0
2017-Jul-21 22:30N 43°23' E 009°15'712.9
2017-Jul-21 22:00N 43°17' E 009°19'31 4.8
2017-Jul-21 15:30N 42°53' E 009°47'817.2
2017-Jul-21 15:00N 42°59' E 009°56'917.1
2017-Jul-21 14:30N 43°07' E 009°60'917.2
2017-Jul-21 14:00N 43°15' E 010°04'917.2
2017-Jul-21 13:30N 43°23' E 010°08'816.8
2017-Jul-21 13:00N 43°31' E 010°12'5 9.1
2017-Jul-21 12:31N 43°33' E 010°18'0 0.7
2017-Jul-21 12:00N 43°33' E 010°18'0 0.0
2017-Jul-21 11:31N 43°33' E 010°18'0 0.0
2017-Jul-21 11:00N 43°33' E 010°18'0 0.0
2017-Jul-21 10:30N 43°33' E 010°18'4 8.8
2017-Jul-21 10:00N 43°30' E 010°14'917.8
2017-Jul-21 09:30N 43°21' E 010°10'917.5
2017-Jul-21 09:00N 43°13' E 010°06'2216.6
2017-Jul-21 07:42N 42°55' E 009°50'26 4.7
2017-Jul-21 02:08N 43°11' E 009°22'415.4
2017-Jul-21 01:51N 43°14' E 009°19'615.4
2017-Jul-21 01:29N 43°19' E 009°15'715.4
2017-Jul-21 01:00N 43°25' E 009°10'715.1
2017-Jul-21 00:30N 43°32' E 009°05'814.9
2017-Jul-21 00:00N 43°39' E 009°00'714.9
2017-Jul-20 23:30N 43°45' E 008°55'714.9
2017-Jul-20 23:00N 43°51' E 008°49'916.9
2017-Jul-20 22:30N 43°59' E 008°43'817.3
2017-Jul-20 22:00N 44°06' E 008°37'917.3
2017-Jul-20 21:30N 44°14' E 008°31'4 5.9
2017-Jul-20 20:52N 44°16' E 008°27'0 0.0
2017-Jul-20 20:28N 44°16' E 008°27'0 0.0
2017-Jul-20 19:58N 44°16' E 008°27'0 0.3
2017-Jul-20 19:30N 44°16' E 008°27'713.7
2017-Jul-20 19:00N 44°12' E 008°35'917.9
2017-Jul-20 18:30N 44°04' E 008°41'917.9
2017-Jul-20 18:01N 43°57' E 008°48'917.8
2017-Jul-20 17:31N 43°49' E 008°54'918.2
2017-Jul-20 17:00N 43°41' E 009°00'918.2
2017-Jul-20 16:31N 43°33' E 009°07'918.2
2017-Jul-20 16:01N 43°25' E 009°13'918.0
2017-Jul-20 15:31N 43°18' E 009°19'918.2
2017-Jul-20 15:00N 43°10' E 009°26'1818.4
2017-Jul-20 14:01N 42°52' E 009°35'12 6.5
2017-Jul-20 12:10N 42°42' E 009°27'1 5.9
2017-Jul-20 12:00N 42°41' E 009°29'816.4
2017-Jul-20 11:30N 42°36' E 009°37'917.7
2017-Jul-20 11:00N 42°27' E 009°40'918.3
2017-Jul-20 10:30N 42°18' E 009°40'917.9
2017-Jul-20 10:00N 42°09' E 009°41'5317.8
2017-Jul-20 07:01N 41°16' E 009°42'117.8
2017-Jul-20 06:57N 41°15' E 009°42'817.9
2017-Jul-20 06:30N 41°07' E 009°43'917.5
2017-Jul-20 06:00N 40°58' E 009°40'3 3.1
2017-Jul-20 05:07N 40°60' E 009°37'0 0.1
2017-Jul-20 04:55N 40°60' E 009°37'3 6.5
2017-Jul-20 04:30N 40°59' E 009°41'8417.6
2017-Jul-19 23:44N 42°23' E 009°52'417.9
2017-Jul-19 23:30N 42°27' E 009°53'1317.6
2017-Jul-19 22:46N 42°40' E 009°57'517.6
2017-Jul-19 22:30N 42°44' E 009°58'917.4
2017-Jul-19 22:00N 42°53' E 010°00'917.3
2017-Jul-19 21:30N 43°01' E 010°04'917.5
2017-Jul-19 21:00N 43°09' E 010°07'917.8
2017-Jul-19 20:30N 43°18' E 010°10'917.6
2017-Jul-19 20:00N 43°27' E 010°12'713.4
2017-Jul-19 19:30N 43°32' E 010°17'1 2.3
2017-Jul-19 18:59N 43°33' E 010°18'0 0.0
2017-Jul-19 18:29N 43°33' E 010°18'0 0.0
2017-Jul-19 17:56N 43°33' E 010°18'0 0.0
2017-Jul-19 17:29N 43°33' E 010°18'2 4.2
2017-Jul-19 17:00N 43°32' E 010°16'815.9
2017-Jul-19 16:30N 43°25' E 010°11'917.9
2017-Jul-19 16:00N 43°16' E 010°06'917.7
2017-Jul-19 15:31N 43°08' E 010°02'917.7
2017-Jul-19 15:01N 42°60' E 009°58'1017.2
2017-Jul-19 14:26N 42°53' E 009°48'817.8
2017-Jul-19 13:57N 42°48' E 009°39'818.1
2017-Jul-19 13:30N 42°43' E 009°30'2 0.6
2017-Jul-19 10:19N 42°42' E 009°28'515.6
2017-Jul-19 10:00N 42°45' E 009°33'917.6
2017-Jul-19 09:30N 42°50' E 009°42'917.8
2017-Jul-19 09:01N 42°56' E 009°52'816.8
2017-Jul-19 08:30N 43°03' E 009°58'917.5
2017-Jul-19 08:00N 43°11' E 010°01'917.8
2017-Jul-19 07:30N 43°19' E 010°06'917.5
2017-Jul-19 07:00N 43°27' E 010°11'713.3
2017-Jul-19 06:31N 43°32' E 010°17'1 2.0
2017-Jul-19 05:57N 43°33' E 010°18'0 0.0
2017-Jul-19 05:30N 43°33' E 010°18'0 0.0
2017-Jul-19 05:00N 43°33' E 010°18'0 0.0
2017-Jul-19 04:30N 43°33' E 010°18'2 4.2
2017-Jul-19 04:01N 43°32' E 010°16'715.0
2017-Jul-19 03:31N 43°25' E 010°12'917.7
2017-Jul-19 03:00N 43°16' E 010°10'917.6
2017-Jul-19 02:30N 43°07' E 010°07'917.6
2017-Jul-19 01:58N 42°58' E 010°04'817.7
2017-Jul-19 01:30N 42°50' E 010°02'917.6
2017-Jul-19 00:59N 42°41' E 009°59'2417.5
2017-Jul-18 23:38N 42°18' E 009°55'217.4
2017-Jul-18 23:30N 42°15' E 009°55'5517.4
2017-Jul-18 20:20N 41°21' E 009°45'617.9
2017-Jul-18 20:00N 41°15' E 009°44'1318.1
2017-Jul-18 19:17N 41°02' E 009°42'4 1.4
2017-Jul-18 16:30N 40°59' E 009°40'11517.7
2017-Jul-18 10:01N 42°52' E 010°01'217.7
2017-Jul-18 09:55N 42°54' E 010°01'817.8
2017-Jul-18 09:29N 43°02' E 010°03'918.0
2017-Jul-18 09:00N 43°10' E 010°06'918.2
2017-Jul-18 08:30N 43°19' E 010°09'1018.0
2017-Jul-18 07:56N 43°29' E 010°12'512.2
2017-Jul-18 07:31N 43°32' E 010°17'1 1.4
2017-Jul-18 06:58N 43°33' E 010°18'0 0.0
2017-Jul-18 06:22N 43°33' E 010°18'0 0.0
2017-Jul-18 06:01N 43°33' E 010°18'0 0.0
2017-Jul-18 05:31N 43°33' E 010°18'0 0.1
2017-Jul-18 05:00N 43°33' E 010°18'4 8.9
2017-Jul-18 04:30N 43°30' E 010°14'917.6
2017-Jul-18 04:00N 43°21' E 010°11'917.7
2017-Jul-18 03:30N 43°13' E 010°08'917.6
2017-Jul-18 03:00N 43°04' E 010°05'917.3
2017-Jul-18 02:30N 42°56' E 010°02'917.2
2017-Jul-18 02:00N 42°47' E 009°60'817.1
2017-Jul-18 01:30N 42°39' E 009°58'917.2
2017-Jul-18 01:00N 42°30' E 009°57'917.4
2017-Jul-18 00:28N 42°21' E 009°56'5917.3
2017-Jul-17 21:04N 41°22' E 009°46'317.3
2017-Jul-17 20:54N 41°20' E 009°46'104 9.5
2017-Jul-17 10:00N 43°03' E 010°03'918.1
2017-Jul-17 09:30N 43°11' E 010°05'918.2
2017-Jul-17 09:00N 43°20' E 010°07'918.0
2017-Jul-17 08:31N 43°29' E 010°11'612.0
2017-Jul-17 08:00N 43°33' E 010°17'1 0.7
2017-Jul-17 07:16N 43°33' E 010°18'0 0.0
2017-Jul-17 06:58N 43°33' E 010°18'0 0.0
2017-Jul-17 06:28N 43°33' E 010°18'0 0.0
2017-Jul-17 05:52N 43°33' E 010°18'0 0.0
2017-Jul-17 05:28N 43°33' E 010°18'0 0.0
2017-Jul-17 04:58N 43°33' E 010°18'1 2.2
2017-Jul-17 04:30N 43°32' E 010°17'612.6
2017-Jul-17 04:00N 43°27' E 010°12'917.7
2017-Jul-17 03:30N 43°19' E 010°10'917.7
2017-Jul-17 03:00N 43°10' E 010°06'  

Dump ship's entire track history